sensor_id;sensor_type;location;lat;lon;timestamp;P1;durP1;ratioP1;P2;durP2;ratioP2
3433;SDS011;1730;41.932;25.548;2023-06-22T00:10:01;8.83;;;8.33;;
3433;SDS011;1730;41.932;25.548;2023-06-22T00:43:05;9.33;;;8.50;;
3433;SDS011;1730;41.932;25.548;2023-06-22T00:45:34;9.37;;;8.67;;
3433;SDS011;1730;41.932;25.548;2023-06-22T00:48:00;9.73;;;9.03;;
3433;SDS011;1730;41.932;25.548;2023-06-22T00:50:27;9.90;;;9.00;;
3433;SDS011;1730;41.932;25.548;2023-06-22T00:52:58;9.67;;;9.07;;
3433;SDS011;1730;41.932;25.548;2023-06-22T00:55:30;8.80;;;8.20;;
3433;SDS011;1730;41.932;25.548;2023-06-22T00:57:57;14.07;;;8.90;;
3433;SDS011;1730;41.932;25.548;2023-06-22T01:00:23;9.83;;;8.83;;
3433;SDS011;1730;41.932;25.548;2023-06-22T01:02:52;10.00;;;9.30;;
3433;SDS011;1730;41.932;25.548;2023-06-22T01:05:19;8.83;;;8.23;;
3433;SDS011;1730;41.932;25.548;2023-06-22T01:08:00;9.60;;;8.80;;
3433;SDS011;1730;41.932;25.548;2023-06-22T01:16:12;11.20;;;9.00;;
3433;SDS011;1730;41.932;25.548;2023-06-22T01:21:45;10.17;;;9.37;;
3433;SDS011;1730;41.932;25.548;2023-06-22T01:49:48;11.70;;;10.70;;
3433;SDS011;1730;41.932;25.548;2023-06-22T01:52:21;11.60;;;10.50;;
3433;SDS011;1730;41.932;25.548;2023-06-22T01:55:02;12.90;;;11.70;;
3433;SDS011;1730;41.932;25.548;2023-06-22T02:05:03;12.40;;;11.43;;
3433;SDS011;1730;41.932;25.548;2023-06-22T02:08:09;13.85;;;12.75;;
3433;SDS011;1730;41.932;25.548;2023-06-22T02:10:41;14.20;;;12.90;;
3433;SDS011;1730;41.932;25.548;2023-06-22T02:18:26;19.63;;;14.03;;
3433;SDS011;1730;41.932;25.548;2023-06-22T02:20:55;14.37;;;13.00;;
3433;SDS011;1730;41.932;25.548;2023-06-22T02:23:21;14.37;;;13.17;;
3433;SDS011;1730;41.932;25.548;2023-06-22T02:28:24;14.23;;;13.03;;
3433;SDS011;1730;41.932;25.548;2023-06-22T02:30:49;17.30;;;14.07;;
3433;SDS011;1730;41.932;25.548;2023-06-22T02:33:15;17.30;;;13.63;;
3433;SDS011;1730;41.932;25.548;2023-06-22T02:35:47;18.37;;;13.80;;
3433;SDS011;1730;41.932;25.548;2023-06-22T02:38:15;13.73;;;12.53;;
3433;SDS011;1730;41.932;25.548;2023-06-22T02:40:46;15.03;;;13.40;;
3433;SDS011;1730;41.932;25.548;2023-06-22T02:43:12;15.20;;;13.50;;
3433;SDS011;1730;41.932;25.548;2023-06-22T02:45:38;14.77;;;13.37;;
3433;SDS011;1730;41.932;25.548;2023-06-22T02:48:04;16.40;;;13.37;;
3433;SDS011;1730;41.932;25.548;2023-06-22T02:50:36;13.70;;;12.37;;
3433;SDS011;1730;41.932;25.548;2023-06-22T02:53:05;13.47;;;12.17;;
3433;SDS011;1730;41.932;25.548;2023-06-22T02:58:21;14.17;;;12.87;;
3433;SDS011;1730;41.932;25.548;2023-06-22T03:00:47;13.47;;;12.27;;
3433;SDS011;1730;41.932;25.548;2023-06-22T03:03:13;18.40;;;12.77;;
3433;SDS011;1730;41.932;25.548;2023-06-22T03:05:38;14.87;;;13.50;;
3433;SDS011;1730;41.932;25.548;2023-06-22T03:08:05;14.10;;;12.60;;
3433;SDS011;1730;41.932;25.548;2023-06-22T03:10:31;15.53;;;12.90;;
3433;SDS011;1730;41.932;25.548;2023-06-22T03:12:57;13.10;;;11.93;;
3433;SDS011;1730;41.932;25.548;2023-06-22T03:15:23;14.37;;;12.90;;
3433;SDS011;1730;41.932;25.548;2023-06-22T03:20:35;14.43;;;11.70;;
3433;SDS011;1730;41.932;25.548;2023-06-22T03:23:22;14.40;;;12.73;;
3433;SDS011;1730;41.932;25.548;2023-06-22T03:25:48;13.30;;;12.17;;
3433;SDS011;1730;41.932;25.548;2023-06-22T03:29:09;12.93;;;11.90;;
3433;SDS011;1730;41.932;25.548;2023-06-22T03:31:44;15.70;;;12.40;;
3433;SDS011;1730;41.932;25.548;2023-06-22T03:34:11;16.07;;;11.23;;
3433;SDS011;1730;41.932;25.548;2023-06-22T03:36:38;13.57;;;12.27;;
3433;SDS011;1730;41.932;25.548;2023-06-22T04:04:36;10.80;;;10.00;;
3433;SDS011;1730;41.932;25.548;2023-06-22T04:07:05;11.30;;;10.10;;
3433;SDS011;1730;41.932;25.548;2023-06-22T04:09:37;11.13;;;10.20;;
3433;SDS011;1730;41.932;25.548;2023-06-22T04:12:03;12.47;;;10.90;;
3433;SDS011;1730;41.932;25.548;2023-06-22T04:14:29;10.57;;;9.77;;
3433;SDS011;1730;41.932;25.548;2023-06-22T04:16:55;10.93;;;9.97;;
3433;SDS011;1730;41.932;25.548;2023-06-22T04:19:21;20.20;;;15.63;;
3433;SDS011;1730;41.932;25.548;2023-06-22T04:21:49;13.20;;;11.80;;
3433;SDS011;1730;41.932;25.548;2023-06-22T04:24:15;11.93;;;9.07;;
3433;SDS011;1730;41.932;25.548;2023-06-22T04:26:45;17.23;;;11.00;;
3433;SDS011;1730;41.932;25.548;2023-06-22T04:29:13;11.13;;;10.10;;
3433;SDS011;1730;41.932;25.548;2023-06-22T04:31:39;11.97;;;10.97;;
3433;SDS011;1730;41.932;25.548;2023-06-22T04:34:10;12.60;;;11.50;;
3433;SDS011;1730;41.932;25.548;2023-06-22T04:36:37;12.20;;;11.23;;
3433;SDS011;1730;41.932;25.548;2023-06-22T04:39:10;11.83;;;11.00;;
3433;SDS011;1730;41.932;25.548;2023-06-22T04:41:39;11.17;;;10.10;;
3433;SDS011;1730;41.932;25.548;2023-06-22T04:47:30;11.10;;;10.10;;
3433;SDS011;1730;41.932;25.548;2023-06-22T04:49:56;15.97;;;12.67;;
3433;SDS011;1730;41.932;25.548;2023-06-22T04:52:22;12.03;;;10.93;;
3433;SDS011;1730;41.932;25.548;2023-06-22T04:54:50;10.97;;;10.03;;
3433;SDS011;1730;41.932;25.548;2023-06-22T04:57:22;11.67;;;10.67;;
3433;SDS011;1730;41.932;25.548;2023-06-22T05:07:01;12.97;;;11.70;;
3433;SDS011;1730;41.932;25.548;2023-06-22T05:31:38;9.83;;;8.03;;
3433;SDS011;1730;41.932;25.548;2023-06-22T05:34:05;6.40;;;6.00;;
3433;SDS011;1730;41.932;25.548;2023-06-22T05:36:31;13.87;;;10.33;;
3433;SDS011;1730;41.932;25.548;2023-06-22T05:38:56;12.43;;;9.50;;
3433;SDS011;1730;41.932;25.548;2023-06-22T05:41:23;9.57;;;8.97;;
3433;SDS011;1730;41.932;25.548;2023-06-22T05:43:49;34.80;;;10.80;;
3433;SDS011;1730;41.932;25.548;2023-06-22T05:46:14;9.33;;;8.53;;
3433;SDS011;1730;41.932;25.548;2023-06-22T05:48:40;10.53;;;9.77;;
3433;SDS011;1730;41.932;25.548;2023-06-22T05:51:05;10.27;;;9.30;;
3433;SDS011;1730;41.932;25.548;2023-06-22T05:53:31;11.27;;;9.93;;
3433;SDS011;1730;41.932;25.548;2023-06-22T05:55:56;10.93;;;9.97;;
3433;SDS011;1730;41.932;25.548;2023-06-22T05:58:22;10.73;;;9.70;;
3433;SDS011;1730;41.932;25.548;2023-06-22T06:00:47;11.37;;;10.17;;
3433;SDS011;1730;41.932;25.548;2023-06-22T06:03:14;10.70;;;10.10;;
3433;SDS011;1730;41.932;25.548;2023-06-22T06:05:42;12.90;;;11.60;;
3433;SDS011;1730;41.932;25.548;2023-06-22T06:08:08;11.33;;;10.37;;
3433;SDS011;1730;41.932;25.548;2023-06-22T06:10:36;16.63;;;11.40;;
3433;SDS011;1730;41.932;25.548;2023-06-22T06:13:02;10.97;;;10.20;;
3433;SDS011;1730;41.932;25.548;2023-06-22T06:15:29;11.47;;;10.67;;
3433;SDS011;1730;41.932;25.548;2023-06-22T06:17:55;11.07;;;10.20;;
3433;SDS011;1730;41.932;25.548;2023-06-22T06:20:21;11.37;;;10.53;;
3433;SDS011;1730;41.932;25.548;2023-06-22T06:22:49;11.00;;;10.30;;
3433;SDS011;1730;41.932;25.548;2023-06-22T06:25:15;11.60;;;10.40;;
3433;SDS011;1730;41.932;25.548;2023-06-22T06:27:42;11.97;;;10.87;;
3433;SDS011;1730;41.932;25.548;2023-06-22T06:30:09;13.07;;;11.37;;
3433;SDS011;1730;41.932;25.548;2023-06-22T06:32:35;11.97;;;10.50;;
3433;SDS011;1730;41.932;25.548;2023-06-22T06:35:01;11.00;;;10.10;;
3433;SDS011;1730;41.932;25.548;2023-06-22T06:37:27;12.13;;;11.03;;
3433;SDS011;1730;41.932;25.548;2023-06-22T06:39:53;11.43;;;10.63;;
3433;SDS011;1730;41.932;25.548;2023-06-22T06:42:18;10.77;;;10.07;;
3433;SDS011;1730;41.932;25.548;2023-06-22T06:44:45;11.83;;;10.83;;
3433;SDS011;1730;41.932;25.548;2023-06-22T06:47:10;11.60;;;10.67;;
3433;SDS011;1730;41.932;25.548;2023-06-22T06:49:36;11.63;;;10.83;;
3433;SDS011;1730;41.932;25.548;2023-06-22T06:52:01;12.30;;;11.20;;
3433;SDS011;1730;41.932;25.548;2023-06-22T06:54:27;10.30;;;9.60;;
3433;SDS011;1730;41.932;25.548;2023-06-22T06:56:53;12.73;;;11.40;;
3433;SDS011;1730;41.932;25.548;2023-06-22T06:59:18;12.00;;;10.80;;
3433;SDS011;1730;41.932;25.548;2023-06-22T07:01:44;11.20;;;10.00;;
3433;SDS011;1730;41.932;25.548;2023-06-22T07:04:10;11.40;;;10.30;;
3433;SDS011;1730;41.932;25.548;2023-06-22T07:06:45;10.63;;;9.93;;
3433;SDS011;1730;41.932;25.548;2023-06-22T07:09:11;10.50;;;9.70;;
3433;SDS011;1730;41.932;25.548;2023-06-22T07:11:36;10.63;;;9.73;;
3433;SDS011;1730;41.932;25.548;2023-06-22T07:14:02;10.03;;;9.27;;
3433;SDS011;1730;41.932;25.548;2023-06-22T07:16:27;10.00;;;9.20;;
3433;SDS011;1730;41.932;25.548;2023-06-22T07:18:53;10.00;;;9.00;;
3433;SDS011;1730;41.932;25.548;2023-06-22T07:21:19;9.37;;;8.77;;
3433;SDS011;1730;41.932;25.548;2023-06-22T07:23:44;11.10;;;9.07;;
3433;SDS011;1730;41.932;25.548;2023-06-22T07:26:10;9.13;;;8.60;;
3433;SDS011;1730;41.932;25.548;2023-06-22T07:28:37;8.87;;;8.17;;
3433;SDS011;1730;41.932;25.548;2023-06-22T07:31:05;10.60;;;10.00;;
3433;SDS011;1730;41.932;25.548;2023-06-22T07:33:31;9.47;;;8.87;;
3433;SDS011;1730;41.932;25.548;2023-06-22T07:35:57;9.77;;;8.97;;
3433;SDS011;1730;41.932;25.548;2023-06-22T07:38:22;11.43;;;10.27;;
3433;SDS011;1730;41.932;25.548;2023-06-22T07:40:47;10.40;;;9.70;;
3433;SDS011;1730;41.932;25.548;2023-06-22T07:43:13;10.33;;;9.43;;
3433;SDS011;1730;41.932;25.548;2023-06-22T07:45:39;10.07;;;9.37;;
3433;SDS011;1730;41.932;25.548;2023-06-22T07:48:07;10.73;;;9.90;;
3433;SDS011;1730;41.932;25.548;2023-06-22T07:50:32;10.97;;;10.27;;
3433;SDS011;1730;41.932;25.548;2023-06-22T07:52:58;10.37;;;9.57;;
3433;SDS011;1730;41.932;25.548;2023-06-22T07:55:23;10.07;;;9.47;;
3433;SDS011;1730;41.932;25.548;2023-06-22T07:57:49;9.80;;;9.20;;
3433;SDS011;1730;41.932;25.548;2023-06-22T08:00:16;9.93;;;9.33;;
3433;SDS011;1730;41.932;25.548;2023-06-22T08:02:43;10.80;;;9.80;;
3433;SDS011;1730;41.932;25.548;2023-06-22T08:05:10;10.53;;;9.83;;
3433;SDS011;1730;41.932;25.548;2023-06-22T08:07:36;10.63;;;9.70;;
3433;SDS011;1730;41.932;25.548;2023-06-22T08:10:03;10.90;;;10.00;;
3433;SDS011;1730;41.932;25.548;2023-06-22T08:12:29;12.40;;;10.23;;
3433;SDS011;1730;41.932;25.548;2023-06-22T08:14:55;11.43;;;10.63;;
3433;SDS011;1730;41.932;25.548;2023-06-22T08:17:22;10.70;;;9.80;;
3433;SDS011;1730;41.932;25.548;2023-06-22T08:19:49;11.40;;;10.50;;
3433;SDS011;1730;41.932;25.548;2023-06-22T08:24:49;10.50;;;9.50;;
3433;SDS011;1730;41.932;25.548;2023-06-22T08:27:15;10.20;;;9.60;;
3433;SDS011;1730;41.932;25.548;2023-06-22T08:29:58;9.77;;;9.00;;
3433;SDS011;1730;41.932;25.548;2023-06-22T08:32:47;9.30;;;8.67;;
3433;SDS011;1730;41.932;25.548;2023-06-22T08:35:15;9.27;;;8.67;;
3433;SDS011;1730;41.932;25.548;2023-06-22T08:37:41;9.90;;;9.10;;
3433;SDS011;1730;41.932;25.548;2023-06-22T08:45:17;7.73;;;7.27;;
3433;SDS011;1730;41.932;25.548;2023-06-22T08:47:43;10.40;;;8.80;;
3433;SDS011;1730;41.932;25.548;2023-06-22T08:50:12;9.70;;;9.00;;
3433;SDS011;1730;41.932;25.548;2023-06-22T08:52:39;11.50;;;8.17;;
3433;SDS011;1730;41.932;25.548;2023-06-22T08:55:08;11.27;;;10.20;;
3433;SDS011;1730;41.932;25.548;2023-06-22T08:57:47;9.03;;;8.43;;
3433;SDS011;1730;41.932;25.548;2023-06-22T09:00:12;8.23;;;7.73;;
3433;SDS011;1730;41.932;25.548;2023-06-22T09:02:48;7.80;;;7.30;;
3433;SDS011;1730;41.932;25.548;2023-06-22T09:05:14;8.50;;;7.80;;
3433;SDS011;1730;41.932;25.548;2023-06-22T09:07:40;8.47;;;7.83;;
3433;SDS011;1730;41.932;25.548;2023-06-22T09:10:25;7.60;;;7.20;;
3433;SDS011;1730;41.932;25.548;2023-06-22T09:12:51;8.30;;;7.80;;
3433;SDS011;1730;41.932;25.548;2023-06-22T09:15:37;8.67;;;7.97;;
3433;SDS011;1730;41.932;25.548;2023-06-22T09:18:03;8.90;;;8.10;;
3433;SDS011;1730;41.932;25.548;2023-06-22T09:20:28;8.30;;;7.80;;
3433;SDS011;1730;41.932;25.548;2023-06-22T09:22:56;8.70;;;7.90;;
3433;SDS011;1730;41.932;25.548;2023-06-22T09:30:48;8.87;;;8.20;;
3433;SDS011;1730;41.932;25.548;2023-06-22T09:33:19;9.63;;;8.93;;
3433;SDS011;1730;41.932;25.548;2023-06-22T09:36:08;8.50;;;7.80;;
3433;SDS011;1730;41.932;25.548;2023-06-22T09:38:39;9.53;;;8.80;;
3433;SDS011;1730;41.932;25.548;2023-06-22T09:41:04;12.87;;;8.83;;
3433;SDS011;1730;41.932;25.548;2023-06-22T09:43:31;10.83;;;8.30;;
3433;SDS011;1730;41.932;25.548;2023-06-22T09:45:57;8.90;;;8.10;;
3433;SDS011;1730;41.932;25.548;2023-06-22T09:48:23;9.30;;;8.50;;
3433;SDS011;1730;41.932;25.548;2023-06-22T09:50:49;9.37;;;8.73;;
3433;SDS011;1730;41.932;25.548;2023-06-22T09:53:15;8.80;;;8.30;;
3433;SDS011;1730;41.932;25.548;2023-06-22T09:55:40;9.20;;;7.90;;
3433;SDS011;1730;41.932;25.548;2023-06-22T09:58:06;8.93;;;8.33;;
3433;SDS011;1730;41.932;25.548;2023-06-22T10:00:31;9.27;;;8.67;;
3433;SDS011;1730;41.932;25.548;2023-06-22T10:02:57;9.37;;;8.47;;
3433;SDS011;1730;41.932;25.548;2023-06-22T10:05:23;12.33;;;8.70;;
3433;SDS011;1730;41.932;25.548;2023-06-22T10:07:49;8.93;;;8.33;;
3433;SDS011;1730;41.932;25.548;2023-06-22T10:10:15;7.70;;;7.30;;
3433;SDS011;1730;41.932;25.548;2023-06-22T10:12:45;8.73;;;8.13;;
3433;SDS011;1730;41.932;25.548;2023-06-22T10:15:12;8.70;;;7.83;;
3433;SDS011;1730;41.932;25.548;2023-06-22T10:17:38;9.47;;;8.67;;
3433;SDS011;1730;41.932;25.548;2023-06-22T10:20:05;8.93;;;8.23;;
3433;SDS011;1730;41.932;25.548;2023-06-22T10:22:41;9.07;;;8.27;;
3433;SDS011;1730;41.932;25.548;2023-06-22T10:25:08;10.07;;;9.27;;
3433;SDS011;1730;41.932;25.548;2023-06-22T10:27:34;9.27;;;8.40;;
3433;SDS011;1730;41.932;25.548;2023-06-22T10:30:00;9.03;;;8.23;;
3433;SDS011;1730;41.932;25.548;2023-06-22T10:32:26;9.20;;;8.60;;
3433;SDS011;1730;41.932;25.548;2023-06-22T10:34:53;8.30;;;7.80;;
3433;SDS011;1730;41.932;25.548;2023-06-22T10:37:19;8.90;;;7.83;;
3433;SDS011;1730;41.932;25.548;2023-06-22T10:44:48;9.03;;;8.10;;
3433;SDS011;1730;41.932;25.548;2023-06-22T10:47:13;8.03;;;7.53;;
3433;SDS011;1730;41.932;25.548;2023-06-22T10:49:39;7.80;;;7.30;;
3433;SDS011;1730;41.932;25.548;2023-06-22T10:52:06;8.53;;;8.03;;
3433;SDS011;1730;41.932;25.548;2023-06-22T10:54:33;8.13;;;7.60;;
3433;SDS011;1730;41.932;25.548;2023-06-22T10:57:00;8.30;;;7.83;;
3433;SDS011;1730;41.932;25.548;2023-06-22T10:59:28;8.97;;;8.27;;
3433;SDS011;1730;41.932;25.548;2023-06-22T11:01:57;8.70;;;8.13;;
3433;SDS011;1730;41.932;25.548;2023-06-22T11:04:23;7.70;;;7.10;;
3433;SDS011;1730;41.932;25.548;2023-06-22T11:06:50;8.70;;;7.70;;
3433;SDS011;1730;41.932;25.548;2023-06-22T11:09:16;8.80;;;7.60;;
3433;SDS011;1730;41.932;25.548;2023-06-22T11:11:49;8.13;;;7.60;;
3433;SDS011;1730;41.932;25.548;2023-06-22T11:14:16;9.37;;;8.50;;
3433;SDS011;1730;41.932;25.548;2023-06-22T11:16:42;7.60;;;7.10;;
3433;SDS011;1730;41.932;25.548;2023-06-22T11:19:08;9.20;;;8.40;;
3433;SDS011;1730;41.932;25.548;2023-06-22T11:21:36;8.40;;;7.90;;
3433;SDS011;1730;41.932;25.548;2023-06-22T11:24:04;8.30;;;7.70;;
3433;SDS011;1730;41.932;25.548;2023-06-22T11:26:30;7.67;;;7.10;;
3433;SDS011;1730;41.932;25.548;2023-06-22T11:29:00;7.90;;;7.33;;
3433;SDS011;1730;41.932;25.548;2023-06-22T11:31:31;8.00;;;7.50;;
3433;SDS011;1730;41.932;25.548;2023-06-22T11:36:33;10.00;;;8.97;;
3433;SDS011;1730;41.932;25.548;2023-06-22T11:39:02;9.17;;;8.30;;
3433;SDS011;1730;41.932;25.548;2023-06-22T11:41:28;9.80;;;9.17;;
3433;SDS011;1730;41.932;25.548;2023-06-22T11:43:53;9.10;;;8.03;;
3433;SDS011;1730;41.932;25.548;2023-06-22T11:46:20;8.87;;;8.17;;
3433;SDS011;1730;41.932;25.548;2023-06-22T11:48:45;8.60;;;8.07;;
3433;SDS011;1730;41.932;25.548;2023-06-22T11:51:11;8.10;;;7.60;;
3433;SDS011;1730;41.932;25.548;2023-06-22T11:53:40;7.80;;;7.40;;
3433;SDS011;1730;41.932;25.548;2023-06-22T11:56:06;12.43;;;7.93;;
3433;SDS011;1730;41.932;25.548;2023-06-22T12:01:10;9.23;;;8.43;;
3433;SDS011;1730;41.932;25.548;2023-06-22T12:03:36;7.63;;;7.13;;
3433;SDS011;1730;41.932;25.548;2023-06-22T12:06:02;8.43;;;7.83;;
3433;SDS011;1730;41.932;25.548;2023-06-22T12:08:27;7.60;;;7.30;;
3433;SDS011;1730;41.932;25.548;2023-06-22T12:10:53;9.93;;;8.07;;
3433;SDS011;1730;41.932;25.548;2023-06-22T12:13:19;8.20;;;7.60;;
3433;SDS011;1730;41.932;25.548;2023-06-22T12:15:45;8.20;;;7.60;;
3433;SDS011;1730;41.932;25.548;2023-06-22T12:18:11;8.93;;;8.17;;
3433;SDS011;1730;41.932;25.548;2023-06-22T12:20:37;9.07;;;8.13;;
3433;SDS011;1730;41.932;25.548;2023-06-22T12:23:04;8.40;;;7.83;;
3433;SDS011;1730;41.932;25.548;2023-06-22T12:25:37;7.30;;;7.00;;
3433;SDS011;1730;41.932;25.548;2023-06-22T12:28:04;8.37;;;7.77;;
3433;SDS011;1730;41.932;25.548;2023-06-22T12:30:32;8.70;;;8.13;;
3433;SDS011;1730;41.932;25.548;2023-06-22T12:32:58;8.87;;;8.17;;
3433;SDS011;1730;41.932;25.548;2023-06-22T12:35:24;8.17;;;7.70;;
3433;SDS011;1730;41.932;25.548;2023-06-22T12:37:53;8.23;;;7.73;;
3433;SDS011;1730;41.932;25.548;2023-06-22T12:40:19;8.47;;;7.30;;
3433;SDS011;1730;41.932;25.548;2023-06-22T12:42:45;7.80;;;7.40;;
3433;SDS011;1730;41.932;25.548;2023-06-22T12:45:10;8.57;;;7.70;;
3433;SDS011;1730;41.932;25.548;2023-06-22T12:47:39;7.97;;;7.50;;
3433;SDS011;1730;41.932;25.548;2023-06-22T12:50:06;9.87;;;8.83;;
3433;SDS011;1730;41.932;25.548;2023-06-22T12:52:32;8.17;;;7.60;;
3433;SDS011;1730;41.932;25.548;2023-06-22T12:54:58;10.50;;;8.20;;
3433;SDS011;1730;41.932;25.548;2023-06-22T12:57:23;8.63;;;7.90;;
3433;SDS011;1730;41.932;25.548;2023-06-22T13:02:27;9.00;;;8.17;;
3433;SDS011;1730;41.932;25.548;2023-06-22T13:04:58;9.03;;;8.40;;
3433;SDS011;1730;41.932;25.548;2023-06-22T13:07:25;8.80;;;8.07;;
3433;SDS011;1730;41.932;25.548;2023-06-22T13:09:54;8.43;;;7.97;;
3433;SDS011;1730;41.932;25.548;2023-06-22T13:12:20;8.67;;;7.97;;
3433;SDS011;1730;41.932;25.548;2023-06-22T13:14:47;8.63;;;7.50;;
3433;SDS011;1730;41.932;25.548;2023-06-22T13:17:14;8.80;;;8.00;;
3433;SDS011;1730;41.932;25.548;2023-06-22T13:19:40;8.23;;;7.47;;
3433;SDS011;1730;41.932;25.548;2023-06-22T13:24:58;8.77;;;8.17;;
3433;SDS011;1730;41.932;25.548;2023-06-22T13:27:24;9.10;;;8.40;;
3433;SDS011;1730;41.932;25.548;2023-06-22T13:29:50;8.07;;;7.47;;
3433;SDS011;1730;41.932;25.548;2023-06-22T13:32:16;7.53;;;7.13;;
3433;SDS011;1730;41.932;25.548;2023-06-22T13:34:41;9.43;;;8.53;;
3433;SDS011;1730;41.932;25.548;2023-06-22T13:37:08;7.60;;;7.03;;
3433;SDS011;1730;41.932;25.548;2023-06-22T13:39:37;7.50;;;7.00;;
3433;SDS011;1730;41.932;25.548;2023-06-22T13:47:08;7.67;;;6.97;;
3433;SDS011;1730;41.932;25.548;2023-06-22T13:49:34;6.80;;;6.40;;
3433;SDS011;1730;41.932;25.548;2023-06-22T13:54:37;8.00;;;7.20;;
3433;SDS011;1730;41.932;25.548;2023-06-22T13:57:02;8.23;;;7.63;;
3433;SDS011;1730;41.932;25.548;2023-06-22T13:59:28;8.30;;;7.80;;
3433;SDS011;1730;41.932;25.548;2023-06-22T14:01:53;7.77;;;7.00;;
3433;SDS011;1730;41.932;25.548;2023-06-22T14:04:24;8.67;;;7.57;;
3433;SDS011;1730;41.932;25.548;2023-06-22T14:06:50;12.10;;;6.63;;
3433;SDS011;1730;41.932;25.548;2023-06-22T14:12:13;7.77;;;7.27;;
3433;SDS011;1730;41.932;25.548;2023-06-22T14:14:39;6.60;;;6.10;;
3433;SDS011;1730;41.932;25.548;2023-06-22T14:17:05;8.27;;;7.30;;
3433;SDS011;1730;41.932;25.548;2023-06-22T14:19:30;6.93;;;6.40;;
3433;SDS011;1730;41.932;25.548;2023-06-22T14:21:56;9.67;;;6.00;;
3433;SDS011;1730;41.932;25.548;2023-06-22T14:24:23;7.30;;;6.80;;
3433;SDS011;1730;41.932;25.548;2023-06-22T14:26:50;8.20;;;7.70;;
3433;SDS011;1730;41.932;25.548;2023-06-22T14:29:15;8.40;;;7.70;;
3433;SDS011;1730;41.932;25.548;2023-06-22T14:31:44;10.30;;;7.70;;
3433;SDS011;1730;41.932;25.548;2023-06-22T14:34:12;14.87;;;7.47;;
3433;SDS011;1730;41.932;25.548;2023-06-22T14:36:38;8.13;;;7.73;;
3433;SDS011;1730;41.932;25.548;2023-06-22T14:39:03;8.47;;;7.90;;
3433;SDS011;1730;41.932;25.548;2023-06-22T14:41:29;8.20;;;7.67;;
3433;SDS011;1730;41.932;25.548;2023-06-22T14:43:55;7.93;;;7.30;;
3433;SDS011;1730;41.932;25.548;2023-06-22T14:46:21;7.90;;;7.40;;
3433;SDS011;1730;41.932;25.548;2023-06-22T14:48:47;7.57;;;7.03;;
3433;SDS011;1730;41.932;25.548;2023-06-22T14:51:13;8.03;;;7.53;;
3433;SDS011;1730;41.932;25.548;2023-06-22T14:53:39;8.70;;;8.03;;
3433;SDS011;1730;41.932;25.548;2023-06-22T14:56:04;7.90;;;7.33;;
3433;SDS011;1730;41.932;25.548;2023-06-22T14:58:30;8.50;;;6.53;;
3433;SDS011;1730;41.932;25.548;2023-06-22T15:01:01;11.57;;;7.23;;
3433;SDS011;1730;41.932;25.548;2023-06-22T15:03:32;7.63;;;7.10;;
3433;SDS011;1730;41.932;25.548;2023-06-22T15:06:01;8.30;;;7.67;;
3433;SDS011;1730;41.932;25.548;2023-06-22T15:08:28;8.93;;;8.13;;
3433;SDS011;1730;41.932;25.548;2023-06-22T15:10:55;7.57;;;7.07;;
3433;SDS011;1730;41.932;25.548;2023-06-22T15:13:20;8.00;;;7.27;;
3433;SDS011;1730;41.932;25.548;2023-06-22T15:15:47;8.07;;;7.40;;
3433;SDS011;1730;41.932;25.548;2023-06-22T15:18:14;7.27;;;6.87;;
3433;SDS011;1730;41.932;25.548;2023-06-22T15:20:41;7.30;;;6.60;;
3433;SDS011;1730;41.932;25.548;2023-06-22T15:23:11;7.00;;;6.50;;
3433;SDS011;1730;41.932;25.548;2023-06-22T15:25:37;9.57;;;7.27;;
3433;SDS011;1730;41.932;25.548;2023-06-22T15:28:02;7.60;;;6.83;;
3433;SDS011;1730;41.932;25.548;2023-06-22T15:30:28;9.47;;;8.63;;
3433;SDS011;1730;41.932;25.548;2023-06-22T15:32:54;8.60;;;7.80;;
3433;SDS011;1730;41.932;25.548;2023-06-22T15:35:20;11.93;;;10.53;;
3433;SDS011;1730;41.932;25.548;2023-06-22T15:37:46;8.30;;;7.50;;
3433;SDS011;1730;41.932;25.548;2023-06-22T15:40:11;7.87;;;7.30;;
3433;SDS011;1730;41.932;25.548;2023-06-22T15:42:38;8.03;;;7.43;;
3433;SDS011;1730;41.932;25.548;2023-06-22T15:45:04;8.37;;;7.70;;
3433;SDS011;1730;41.932;25.548;2023-06-22T15:47:30;7.40;;;6.97;;
3433;SDS011;1730;41.932;25.548;2023-06-22T15:49:56;9.33;;;7.30;;
3433;SDS011;1730;41.932;25.548;2023-06-22T15:52:21;13.70;;;12.17;;
3433;SDS011;1730;41.932;25.548;2023-06-22T15:54:47;8.40;;;7.50;;
3433;SDS011;1730;41.932;25.548;2023-06-22T15:57:15;9.30;;;7.80;;
3433;SDS011;1730;41.932;25.548;2023-06-22T15:59:41;8.60;;;7.90;;
3433;SDS011;1730;41.932;25.548;2023-06-22T16:02:07;8.30;;;7.70;;
3433;SDS011;1730;41.932;25.548;2023-06-22T16:04:33;8.20;;;7.57;;
3433;SDS011;1730;41.932;25.548;2023-06-22T16:07:01;11.80;;;8.13;;
3433;SDS011;1730;41.932;25.548;2023-06-22T16:09:28;7.47;;;7.07;;
3433;SDS011;1730;41.932;25.548;2023-06-22T16:11:56;8.70;;;8.20;;
3433;SDS011;1730;41.932;25.548;2023-06-22T16:14:22;10.40;;;8.30;;
3433;SDS011;1730;41.932;25.548;2023-06-22T16:16:48;8.10;;;7.40;;
3433;SDS011;1730;41.932;25.548;2023-06-22T16:19:14;8.50;;;7.90;;
3433;SDS011;1730;41.932;25.548;2023-06-22T16:21:41;8.63;;;8.03;;
3433;SDS011;1730;41.932;25.548;2023-06-22T16:24:07;15.50;;;9.83;;
3433;SDS011;1730;41.932;25.548;2023-06-22T16:26:42;8.27;;;7.77;;
3433;SDS011;1730;41.932;25.548;2023-06-22T16:29:10;8.23;;;7.50;;
3433;SDS011;1730;41.932;25.548;2023-06-22T16:31:36;8.13;;;7.53;;
3433;SDS011;1730;41.932;25.548;2023-06-22T16:34:02;8.13;;;7.60;;
3433;SDS011;1730;41.932;25.548;2023-06-22T16:36:28;10.90;;;9.80;;
3433;SDS011;1730;41.932;25.548;2023-06-22T16:38:54;9.60;;;8.60;;
3433;SDS011;1730;41.932;25.548;2023-06-22T16:41:20;9.60;;;8.60;;
3433;SDS011;1730;41.932;25.548;2023-06-22T16:43:46;9.83;;;7.47;;
3433;SDS011;1730;41.932;25.548;2023-06-22T16:46:12;8.00;;;7.40;;
3433;SDS011;1730;41.932;25.548;2023-06-22T16:48:38;11.13;;;8.63;;
3433;SDS011;1730;41.932;25.548;2023-06-22T16:51:04;9.37;;;8.40;;
3433;SDS011;1730;41.932;25.548;2023-06-22T16:53:33;9.77;;;8.83;;
3433;SDS011;1730;41.932;25.548;2023-06-22T16:56:00;9.33;;;8.63;;
3433;SDS011;1730;41.932;25.548;2023-06-22T16:58:26;9.13;;;8.43;;
3433;SDS011;1730;41.932;25.548;2023-06-22T17:00:55;9.50;;;8.70;;
3433;SDS011;1730;41.932;25.548;2023-06-22T17:03:27;11.90;;;10.90;;
3433;SDS011;1730;41.932;25.548;2023-06-22T17:05:58;23.47;;;14.87;;
3433;SDS011;1730;41.932;25.548;2023-06-22T17:08:31;9.10;;;8.40;;
3433;SDS011;1730;41.932;25.548;2023-06-22T17:11:00;8.80;;;8.10;;
3433;SDS011;1730;41.932;25.548;2023-06-22T17:13:27;8.83;;;8.13;;
3433;SDS011;1730;41.932;25.548;2023-06-22T17:15:55;8.80;;;8.03;;
3433;SDS011;1730;41.932;25.548;2023-06-22T17:18:24;9.80;;;8.00;;
3433;SDS011;1730;41.932;25.548;2023-06-22T17:20:51;9.10;;;7.93;;
3433;SDS011;1730;41.932;25.548;2023-06-22T17:23:19;8.67;;;7.90;;
3433;SDS011;1730;41.932;25.548;2023-06-22T17:25:45;9.60;;;8.93;;
3433;SDS011;1730;41.932;25.548;2023-06-22T17:28:12;9.77;;;8.80;;
3433;SDS011;1730;41.932;25.548;2023-06-22T17:30:40;9.27;;;6.97;;
3433;SDS011;1730;41.932;25.548;2023-06-22T17:33:09;9.10;;;7.83;;
3433;SDS011;1730;41.932;25.548;2023-06-22T17:35:48;14.07;;;8.20;;
3433;SDS011;1730;41.932;25.548;2023-06-22T17:38:20;10.43;;;8.43;;
3433;SDS011;1730;41.932;25.548;2023-06-22T17:40:50;9.40;;;8.30;;
3433;SDS011;1730;41.932;25.548;2023-06-22T17:43:18;12.70;;;7.70;;
3433;SDS011;1730;41.932;25.548;2023-06-22T17:45:45;11.23;;;8.60;;
3433;SDS011;1730;41.932;25.548;2023-06-22T17:48:11;18.30;;;8.67;;
3433;SDS011;1730;41.932;25.548;2023-06-22T17:50:41;12.97;;;8.77;;
3433;SDS011;1730;41.932;25.548;2023-06-22T17:53:10;9.50;;;8.60;;
3433;SDS011;1730;41.932;25.548;2023-06-22T17:55:37;13.17;;;8.33;;
3433;SDS011;1730;41.932;25.548;2023-06-22T17:58:06;9.67;;;8.70;;
3433;SDS011;1730;41.932;25.548;2023-06-22T18:00:31;10.13;;;8.40;;
3433;SDS011;1730;41.932;25.548;2023-06-22T18:02:57;9.40;;;8.40;;
3433;SDS011;1730;41.932;25.548;2023-06-22T18:05:33;14.17;;;8.97;;
3433;SDS011;1730;41.932;25.548;2023-06-22T18:08:01;9.40;;;8.40;;